sensor_id;sensor_type;location;lat;lon;timestamp;P1;durP1;ratioP1;P2;durP2;ratioP2
75413;SDS011;64758;52.122;5.404;2023-04-05T00:00:15;8.20;;;3.80;;
75413;SDS011;64758;52.122;5.404;2023-04-05T00:02:41;6.35;;;3.38;;
75413;SDS011;64758;52.122;5.404;2023-04-05T00:05:09;7.72;;;3.58;;
75413;SDS011;64758;52.122;5.404;2023-04-05T00:07:37;7.82;;;3.67;;
75413;SDS011;64758;52.122;5.404;2023-04-05T00:10:04;8.27;;;3.85;;
75413;SDS011;64758;52.122;5.404;2023-04-05T00:12:31;5.53;;;3.47;;
75413;SDS011;64758;52.122;5.404;2023-04-05T00:14:58;6.95;;;3.67;;
75413;SDS011;64758;52.122;5.404;2023-04-05T00:17:24;8.27;;;3.58;;
75413;SDS011;64758;52.122;5.404;2023-04-05T00:19:51;7.03;;;4.13;;
75413;SDS011;64758;52.122;5.404;2023-04-05T00:22:22;7.70;;;3.80;;
75413;SDS011;64758;52.122;5.404;2023-04-05T00:24:51;8.23;;;3.37;;
75413;SDS011;64758;52.122;5.404;2023-04-05T00:27:17;8.88;;;3.65;;
75413;SDS011;64758;52.122;5.404;2023-04-05T00:29:44;7.40;;;3.72;;
75413;SDS011;64758;52.122;5.404;2023-04-05T00:32:11;5.55;;;3.58;;
75413;SDS011;64758;52.122;5.404;2023-04-05T00:34:37;6.10;;;3.70;;
75413;SDS011;64758;52.122;5.404;2023-04-05T00:37:04;7.40;;;3.80;;
75413;SDS011;64758;52.122;5.404;2023-04-05T00:39:31;7.05;;;4.07;;
75413;SDS011;64758;52.122;5.404;2023-04-05T00:41:57;5.82;;;3.42;;
75413;SDS011;64758;52.122;5.404;2023-04-05T00:44:23;8.05;;;3.95;;
75413;SDS011;64758;52.122;5.404;2023-04-05T00:46:51;8.50;;;3.88;;
75413;SDS011;64758;52.122;5.404;2023-04-05T00:49:18;4.87;;;3.20;;
75413;SDS011;64758;52.122;5.404;2023-04-05T00:51:44;5.53;;;3.70;;
75413;SDS011;64758;52.122;5.404;2023-04-05T00:54:12;7.57;;;3.50;;
75413;SDS011;64758;52.122;5.404;2023-04-05T00:56:39;13.25;;;4.47;;
75413;SDS011;64758;52.122;5.404;2023-04-05T00:59:06;5.88;;;3.20;;
75413;SDS011;64758;52.122;5.404;2023-04-05T01:01:32;7.63;;;4.00;;
75413;SDS011;64758;52.122;5.404;2023-04-05T01:04:03;8.35;;;4.18;;
75413;SDS011;64758;52.122;5.404;2023-04-05T01:11:42;7.70;;;3.78;;
75413;SDS011;64758;52.122;5.404;2023-04-05T01:14:12;6.37;;;3.43;;
75413;SDS011;64758;52.122;5.404;2023-04-05T01:16:39;8.02;;;4.00;;
75413;SDS011;64758;52.122;5.404;2023-04-05T01:19:06;7.47;;;4.00;;
75413;SDS011;64758;52.122;5.404;2023-04-05T01:27:13;9.33;;;3.70;;
75413;SDS011;64758;52.122;5.404;2023-04-05T01:29:44;7.82;;;4.15;;
75413;SDS011;64758;52.122;5.404;2023-04-05T01:32:23;7.68;;;4.10;;
75413;SDS011;64758;52.122;5.404;2023-04-05T01:37:34;7.13;;;3.67;;
75413;SDS011;64758;52.122;5.404;2023-04-05T01:40:05;6.20;;;3.83;;
75413;SDS011;64758;52.122;5.404;2023-04-05T01:42:33;8.65;;;4.20;;
75413;SDS011;64758;52.122;5.404;2023-04-05T01:45:00;7.18;;;3.85;;
75413;SDS011;64758;52.122;5.404;2023-04-05T01:47:27;8.55;;;4.22;;
75413;SDS011;64758;52.122;5.404;2023-04-05T01:49:54;8.38;;;4.10;;
75413;SDS011;64758;52.122;5.404;2023-04-05T01:52:21;11.00;;;4.30;;
75413;SDS011;64758;52.122;5.404;2023-04-05T01:54:47;8.23;;;3.85;;
75413;SDS011;64758;52.122;5.404;2023-04-05T01:57:14;7.03;;;3.95;;
75413;SDS011;64758;52.122;5.404;2023-04-05T01:59:40;5.70;;;3.75;;
75413;SDS011;64758;52.122;5.404;2023-04-05T02:02:07;8.13;;;4.18;;
75413;SDS011;64758;52.122;5.404;2023-04-05T02:04:33;7.80;;;3.90;;
75413;SDS011;64758;52.122;5.404;2023-04-05T02:07:00;7.18;;;4.18;;
75413;SDS011;64758;52.122;5.404;2023-04-05T02:09:27;8.43;;;4.05;;
75413;SDS011;64758;52.122;5.404;2023-04-05T02:11:53;10.80;;;4.20;;
75413;SDS011;64758;52.122;5.404;2023-04-05T02:14:23;6.53;;;3.63;;
75413;SDS011;64758;52.122;5.404;2023-04-05T02:16:50;6.37;;;3.90;;
75413;SDS011;64758;52.122;5.404;2023-04-05T02:19:19;7.80;;;4.35;;
75413;SDS011;64758;52.122;5.404;2023-04-05T02:21:48;5.80;;;3.63;;
75413;SDS011;64758;52.122;5.404;2023-04-05T02:24:18;7.40;;;3.78;;
75413;SDS011;64758;52.122;5.404;2023-04-05T02:26:44;7.15;;;3.88;;
75413;SDS011;64758;52.122;5.404;2023-04-05T02:29:11;6.43;;;3.57;;
75413;SDS011;64758;52.122;5.404;2023-04-05T02:31:37;7.65;;;4.40;;
75413;SDS011;64758;52.122;5.404;2023-04-05T02:34:04;7.20;;;4.00;;
75413;SDS011;64758;52.122;5.404;2023-04-05T02:36:34;9.10;;;4.53;;
75413;SDS011;64758;52.122;5.404;2023-04-05T02:39:00;9.50;;;4.53;;
75413;SDS011;64758;52.122;5.404;2023-04-05T02:41:27;8.83;;;4.30;;
75413;SDS011;64758;52.122;5.404;2023-04-05T02:43:53;7.57;;;3.97;;
75413;SDS011;64758;52.122;5.404;2023-04-05T02:46:20;10.13;;;4.45;;
75413;SDS011;64758;52.122;5.404;2023-04-05T02:48:47;7.95;;;4.20;;
75413;SDS011;64758;52.122;5.404;2023-04-05T02:51:13;10.18;;;4.80;;
75413;SDS011;64758;52.122;5.404;2023-04-05T02:53:40;8.17;;;4.17;;
75413;SDS011;64758;52.122;5.404;2023-04-05T02:56:06;12.38;;;4.68;;
75413;SDS011;64758;52.122;5.404;2023-04-05T02:58:33;7.97;;;4.30;;
75413;SDS011;64758;52.122;5.404;2023-04-05T03:00:59;11.88;;;3.75;;
75413;SDS011;64758;52.122;5.404;2023-04-05T03:03:32;8.60;;;4.13;;
75413;SDS011;64758;52.122;5.404;2023-04-05T03:06:01;8.00;;;3.80;;
75413;SDS011;64758;52.122;5.404;2023-04-05T03:08:36;8.95;;;3.72;;
75413;SDS011;64758;52.122;5.404;2023-04-05T03:11:04;8.52;;;3.80;;
75413;SDS011;64758;52.122;5.404;2023-04-05T03:13:31;7.78;;;3.60;;
75413;SDS011;64758;52.122;5.404;2023-04-05T03:15:58;7.10;;;4.05;;
75413;SDS011;64758;52.122;5.404;2023-04-05T03:18:25;5.70;;;3.33;;
75413;SDS011;64758;52.122;5.404;2023-04-05T03:20:52;9.30;;;4.50;;
75413;SDS011;64758;52.122;5.404;2023-04-05T03:23:25;8.35;;;3.78;;
75413;SDS011;64758;52.122;5.404;2023-04-05T03:28:23;8.82;;;4.13;;
75413;SDS011;64758;52.122;5.404;2023-04-05T03:30:50;7.13;;;3.60;;
75413;SDS011;64758;52.122;5.404;2023-04-05T03:33:17;8.80;;;4.00;;
75413;SDS011;64758;52.122;5.404;2023-04-05T03:35:45;6.85;;;3.80;;
75413;SDS011;64758;52.122;5.404;2023-04-05T03:38:12;6.38;;;3.95;;
75413;SDS011;64758;52.122;5.404;2023-04-05T03:40:38;6.47;;;3.70;;
75413;SDS011;64758;52.122;5.404;2023-04-05T03:43:05;10.00;;;4.27;;
75413;SDS011;64758;52.122;5.404;2023-04-05T03:45:31;10.55;;;3.80;;
75413;SDS011;64758;52.122;5.404;2023-04-05T03:47:59;7.05;;;3.83;;
75413;SDS011;64758;52.122;5.404;2023-04-05T03:50:26;6.38;;;3.70;;
75413;SDS011;64758;52.122;5.404;2023-04-05T03:52:53;9.90;;;4.30;;
75413;SDS011;64758;52.122;5.404;2023-04-05T03:55:19;8.17;;;3.97;;
75413;SDS011;64758;52.122;5.404;2023-04-05T03:57:46;6.93;;;4.35;;
75413;SDS011;64758;52.122;5.404;2023-04-05T04:00:13;7.30;;;4.15;;
75413;SDS011;64758;52.122;5.404;2023-04-05T04:02:43;6.85;;;3.55;;
75413;SDS011;64758;52.122;5.404;2023-04-05T04:05:11;8.75;;;3.83;;
75413;SDS011;64758;52.122;5.404;2023-04-05T04:07:38;7.23;;;3.57;;
75413;SDS011;64758;52.122;5.404;2023-04-05T04:10:04;8.93;;;3.67;;
75413;SDS011;64758;52.122;5.404;2023-04-05T04:12:31;7.43;;;4.13;;
75413;SDS011;64758;52.122;5.404;2023-04-05T04:14:58;8.65;;;3.97;;
75413;SDS011;64758;52.122;5.404;2023-04-05T04:17:32;7.95;;;3.60;;
75413;SDS011;64758;52.122;5.404;2023-04-05T04:20:00;8.17;;;3.67;;
75413;SDS011;64758;52.122;5.404;2023-04-05T04:22:27;8.00;;;4.07;;
75413;SDS011;64758;52.122;5.404;2023-04-05T04:24:58;8.88;;;4.30;;
75413;SDS011;64758;52.122;5.404;2023-04-05T04:27:30;7.13;;;3.70;;
75413;SDS011;64758;52.122;5.404;2023-04-05T04:29:57;8.05;;;3.95;;
75413;SDS011;64758;52.122;5.404;2023-04-05T04:32:29;8.33;;;4.27;;
75413;SDS011;64758;52.122;5.404;2023-04-05T04:35:15;6.95;;;4.07;;
75413;SDS011;64758;52.122;5.404;2023-04-05T04:37:44;7.80;;;4.03;;
75413;SDS011;64758;52.122;5.404;2023-04-05T04:40:15;8.75;;;3.95;;
75413;SDS011;64758;52.122;5.404;2023-04-05T04:42:46;7.80;;;4.10;;
75413;SDS011;64758;52.122;5.404;2023-04-05T04:45:16;7.93;;;3.90;;
75413;SDS011;64758;52.122;5.404;2023-04-05T04:47:45;10.40;;;4.38;;
75413;SDS011;64758;52.122;5.404;2023-04-05T04:50:12;8.18;;;3.60;;
75413;SDS011;64758;52.122;5.404;2023-04-05T04:52:41;7.55;;;3.88;;
75413;SDS011;64758;52.122;5.404;2023-04-05T04:55:08;10.15;;;4.53;;
75413;SDS011;64758;52.122;5.404;2023-04-05T04:57:35;8.63;;;3.67;;
75413;SDS011;64758;52.122;5.404;2023-04-05T05:00:02;6.75;;;3.78;;
75413;SDS011;64758;52.122;5.404;2023-04-05T05:02:33;8.27;;;4.00;;
75413;SDS011;64758;52.122;5.404;2023-04-05T05:04:59;6.95;;;3.95;;
75413;SDS011;64758;52.122;5.404;2023-04-05T05:07:26;8.73;;;4.25;;
75413;SDS011;64758;52.122;5.404;2023-04-05T05:09:53;7.43;;;4.30;;
75413;SDS011;64758;52.122;5.404;2023-04-05T05:12:20;7.32;;;3.97;;
75413;SDS011;64758;52.122;5.404;2023-04-05T05:14:46;8.15;;;4.15;;
75413;SDS011;64758;52.122;5.404;2023-04-05T05:17:13;11.05;;;3.90;;
75413;SDS011;64758;52.122;5.404;2023-04-05T05:19:40;7.35;;;3.90;;
75413;SDS011;64758;52.122;5.404;2023-04-05T05:22:06;7.43;;;3.97;;
75413;SDS011;64758;52.122;5.404;2023-04-05T05:24:33;8.38;;;3.70;;
75413;SDS011;64758;52.122;5.404;2023-04-05T05:26:59;9.02;;;4.07;;
75413;SDS011;64758;52.122;5.404;2023-04-05T05:29:26;6.10;;;3.90;;
75413;SDS011;64758;52.122;5.404;2023-04-05T05:31:52;10.57;;;4.05;;
75413;SDS011;64758;52.122;5.404;2023-04-05T05:34:19;8.60;;;4.13;;
75413;SDS011;64758;52.122;5.404;2023-04-05T05:36:46;10.18;;;4.45;;
75413;SDS011;64758;52.122;5.404;2023-04-05T05:39:12;7.38;;;4.15;;
75413;SDS011;64758;52.122;5.404;2023-04-05T05:41:39;10.73;;;4.68;;
75413;SDS011;64758;52.122;5.404;2023-04-05T05:44:05;7.78;;;4.18;;
75413;SDS011;64758;52.122;5.404;2023-04-05T05:46:32;7.80;;;4.10;;
75413;SDS011;64758;52.122;5.404;2023-04-05T05:48:58;10.90;;;4.65;;
75413;SDS011;64758;52.122;5.404;2023-04-05T05:51:25;9.10;;;4.82;;
75413;SDS011;64758;52.122;5.404;2023-04-05T05:53:51;7.10;;;4.10;;
75413;SDS011;64758;52.122;5.404;2023-04-05T05:56:18;8.95;;;4.22;;
75413;SDS011;64758;52.122;5.404;2023-04-05T05:58:44;8.53;;;4.10;;
75413;SDS011;64758;52.122;5.404;2023-04-05T06:01:11;8.32;;;4.40;;
75413;SDS011;64758;52.122;5.404;2023-04-05T06:03:38;9.52;;;4.40;;
75413;SDS011;64758;52.122;5.404;2023-04-05T06:06:05;9.45;;;4.13;;
75413;SDS011;64758;52.122;5.404;2023-04-05T06:08:33;11.40;;;4.50;;
75413;SDS011;64758;52.122;5.404;2023-04-05T06:11:00;8.73;;;4.20;;
75413;SDS011;64758;52.122;5.404;2023-04-05T06:13:26;11.40;;;4.88;;
75413;SDS011;64758;52.122;5.404;2023-04-05T06:15:53;9.10;;;4.53;;
75413;SDS011;64758;52.122;5.404;2023-04-05T06:18:19;7.53;;;4.13;;
75413;SDS011;64758;52.122;5.404;2023-04-05T06:20:46;7.07;;;3.95;;
75413;SDS011;64758;52.122;5.404;2023-04-05T06:23:13;10.87;;;4.33;;
75413;SDS011;64758;52.122;5.404;2023-04-05T06:25:39;11.60;;;4.38;;
75413;SDS011;64758;52.122;5.404;2023-04-05T06:28:06;8.70;;;4.65;;
75413;SDS011;64758;52.122;5.404;2023-04-05T06:30:32;8.57;;;4.72;;
75413;SDS011;64758;52.122;5.404;2023-04-05T06:32:59;9.68;;;5.00;;
75413;SDS011;64758;52.122;5.404;2023-04-05T06:35:26;12.57;;;4.87;;
75413;SDS011;64758;52.122;5.404;2023-04-05T06:37:52;8.35;;;5.18;;
75413;SDS011;64758;52.122;5.404;2023-04-05T06:40:19;11.90;;;5.43;;
75413;SDS011;64758;52.122;5.404;2023-04-05T06:42:45;10.50;;;5.35;;
75413;SDS011;64758;52.122;5.404;2023-04-05T06:45:12;10.35;;;5.68;;
75413;SDS011;64758;52.122;5.404;2023-04-05T06:47:39;11.33;;;5.73;;
75413;SDS011;64758;52.122;5.404;2023-04-05T06:50:06;11.63;;;5.80;;
75413;SDS011;64758;52.122;5.404;2023-04-05T06:52:34;11.05;;;5.85;;
75413;SDS011;64758;52.122;5.404;2023-04-05T06:55:00;13.75;;;5.50;;
75413;SDS011;64758;52.122;5.404;2023-04-05T06:57:27;9.55;;;5.55;;
75413;SDS011;64758;52.122;5.404;2023-04-05T06:59:53;11.63;;;5.93;;
75413;SDS011;64758;52.122;5.404;2023-04-05T07:02:20;9.65;;;5.20;;
75413;SDS011;64758;52.122;5.404;2023-04-05T07:04:47;11.32;;;5.45;;
75413;SDS011;64758;52.122;5.404;2023-04-05T07:07:14;11.88;;;5.68;;
75413;SDS011;64758;52.122;5.404;2023-04-05T07:09:40;11.82;;;5.97;;
75413;SDS011;64758;52.122;5.404;2023-04-05T07:12:07;11.37;;;5.93;;
75413;SDS011;64758;52.122;5.404;2023-04-05T07:14:35;9.63;;;5.38;;
75413;SDS011;64758;52.122;5.404;2023-04-05T07:17:03;9.98;;;5.25;;
75413;SDS011;64758;52.122;5.404;2023-04-05T07:19:31;9.82;;;5.32;;
75413;SDS011;64758;52.122;5.404;2023-04-05T07:21:58;9.00;;;4.72;;
75413;SDS011;64758;52.122;5.404;2023-04-05T07:24:25;10.23;;;4.67;;
75413;SDS011;64758;52.122;5.404;2023-04-05T07:26:51;7.25;;;4.50;;
75413;SDS011;64758;52.122;5.404;2023-04-05T07:29:18;8.48;;;4.60;;
75413;SDS011;64758;52.122;5.404;2023-04-05T07:31:44;12.15;;;5.05;;
75413;SDS011;64758;52.122;5.404;2023-04-05T07:34:11;8.02;;;4.70;;
75413;SDS011;64758;52.122;5.404;2023-04-05T07:36:38;8.83;;;4.53;;
75413;SDS011;64758;52.122;5.404;2023-04-05T07:39:06;8.05;;;4.60;;
75413;SDS011;64758;52.122;5.404;2023-04-05T07:41:32;7.80;;;4.60;;
75413;SDS011;64758;52.122;5.404;2023-04-05T07:44:00;11.75;;;5.15;;
75413;SDS011;64758;52.122;5.404;2023-04-05T07:46:27;9.00;;;5.50;;
75413;SDS011;64758;52.122;5.404;2023-04-05T07:48:55;10.37;;;4.53;;
75413;SDS011;64758;52.122;5.404;2023-04-05T07:51:21;9.18;;;4.63;;
75413;SDS011;64758;52.122;5.404;2023-04-05T07:53:48;10.55;;;5.00;;
75413;SDS011;64758;52.122;5.404;2023-04-05T07:56:14;10.68;;;4.68;;
75413;SDS011;64758;52.122;5.404;2023-04-05T07:58:41;7.82;;;4.35;;
75413;SDS011;64758;52.122;5.404;2023-04-05T08:01:08;11.70;;;4.87;;
75413;SDS011;64758;52.122;5.404;2023-04-05T08:03:36;7.32;;;4.82;;
75413;SDS011;64758;52.122;5.404;2023-04-05T08:06:09;8.30;;;4.93;;
75413;SDS011;64758;52.122;5.404;2023-04-05T08:08:40;6.80;;;4.57;;
75413;SDS011;64758;52.122;5.404;2023-04-05T08:11:06;8.48;;;4.65;;
75413;SDS011;64758;52.122;5.404;2023-04-05T08:13:33;8.93;;;5.43;;
75413;SDS011;64758;52.122;5.404;2023-04-05T08:16:00;8.32;;;4.72;;
75413;SDS011;64758;52.122;5.404;2023-04-05T08:18:27;9.48;;;4.68;;
75413;SDS011;64758;52.122;5.404;2023-04-05T08:20:54;7.13;;;4.38;;
75413;SDS011;64758;52.122;5.404;2023-04-05T08:23:21;8.13;;;4.82;;
75413;SDS011;64758;52.122;5.404;2023-04-05T08:25:47;9.13;;;4.90;;
75413;SDS011;64758;52.122;5.404;2023-04-05T08:28:14;8.95;;;4.80;;
75413;SDS011;64758;52.122;5.404;2023-04-05T08:30:41;10.02;;;4.20;;
75413;SDS011;64758;52.122;5.404;2023-04-05T08:33:08;10.20;;;4.55;;
75413;SDS011;64758;52.122;5.404;2023-04-05T08:35:35;7.00;;;3.88;;
75413;SDS011;64758;52.122;5.404;2023-04-05T08:38:03;7.27;;;3.83;;
75413;SDS011;64758;52.122;5.404;2023-04-05T08:40:38;6.18;;;4.15;;
75413;SDS011;64758;52.122;5.404;2023-04-05T08:43:13;8.85;;;4.10;;
75413;SDS011;64758;52.122;5.404;2023-04-05T08:45:49;7.10;;;3.88;;
75413;SDS011;64758;52.122;5.404;2023-04-05T08:48:17;6.28;;;3.05;;
75413;SDS011;64758;52.122;5.404;2023-04-05T08:50:50;6.87;;;3.60;;
75413;SDS011;64758;52.122;5.404;2023-04-05T08:53:18;6.32;;;3.65;;
75413;SDS011;64758;52.122;5.404;2023-04-05T08:55:47;5.32;;;3.30;;
75413;SDS011;64758;52.122;5.404;2023-04-05T08:58:16;8.00;;;3.40;;
75413;SDS011;64758;52.122;5.404;2023-04-05T09:00:46;5.10;;;3.30;;
75413;SDS011;64758;52.122;5.404;2023-04-05T09:03:16;8.30;;;4.00;;
75413;SDS011;64758;52.122;5.404;2023-04-05T09:05:47;6.82;;;4.32;;
75413;SDS011;64758;52.122;5.404;2023-04-05T09:08:16;8.00;;;3.15;;
75413;SDS011;64758;52.122;5.404;2023-04-05T09:10:43;5.00;;;2.92;;
75413;SDS011;64758;52.122;5.404;2023-04-05T09:13:10;6.82;;;3.92;;
75413;SDS011;64758;52.122;5.404;2023-04-05T09:15:37;6.60;;;3.27;;
75413;SDS011;64758;52.122;5.404;2023-04-05T09:18:04;5.45;;;3.03;;
75413;SDS011;64758;52.122;5.404;2023-04-05T09:20:48;6.80;;;3.63;;
75413;SDS011;64758;52.122;5.404;2023-04-05T09:23:15;6.80;;;3.90;;
75413;SDS011;64758;52.122;5.404;2023-04-05T09:25:41;6.45;;;3.25;;
75413;SDS011;64758;52.122;5.404;2023-04-05T09:28:08;4.47;;;3.27;;
75413;SDS011;64758;52.122;5.404;2023-04-05T09:30:35;7.75;;;3.35;;
75413;SDS011;64758;52.122;5.404;2023-04-05T09:33:03;6.60;;;3.63;;
75413;SDS011;64758;52.122;5.404;2023-04-05T09:35:35;6.35;;;3.40;;
75413;SDS011;64758;52.122;5.404;2023-04-05T09:38:02;7.10;;;3.58;;
75413;SDS011;64758;52.122;5.404;2023-04-05T09:40:39;9.20;;;3.47;;
75413;SDS011;64758;52.122;5.404;2023-04-05T09:43:10;6.90;;;3.97;;
75413;SDS011;64758;52.122;5.404;2023-04-05T09:45:41;6.22;;;4.07;;
75413;SDS011;64758;52.122;5.404;2023-04-05T09:48:08;6.15;;;4.20;;
75413;SDS011;64758;52.122;5.404;2023-04-05T09:50:35;6.53;;;3.80;;
75413;SDS011;64758;52.122;5.404;2023-04-05T09:53:04;7.70;;;3.70;;
75413;SDS011;64758;52.122;5.404;2023-04-05T09:55:32;6.05;;;3.85;;
75413;SDS011;64758;52.122;5.404;2023-04-05T09:57:59;5.28;;;3.70;;
75413;SDS011;64758;52.122;5.404;2023-04-05T10:00:27;6.97;;;4.05;;
75413;SDS011;64758;52.122;5.404;2023-04-05T10:02:55;6.68;;;4.10;;
75413;SDS011;64758;52.122;5.404;2023-04-05T10:05:22;6.10;;;3.90;;
75413;SDS011;64758;52.122;5.404;2023-04-05T10:07:52;8.20;;;3.78;;
75413;SDS011;64758;52.122;5.404;2023-04-05T10:10:21;6.13;;;3.70;;
75413;SDS011;64758;52.122;5.404;2023-04-05T10:12:48;7.57;;;3.53;;
75413;SDS011;64758;52.122;5.404;2023-04-05T10:15:16;7.03;;;4.10;;
75413;SDS011;64758;52.122;5.404;2023-04-05T10:17:47;6.43;;;4.03;;
75413;SDS011;64758;52.122;5.404;2023-04-05T10:20:21;5.82;;;3.90;;
75413;SDS011;64758;52.122;5.404;2023-04-05T10:28:06;6.63;;;4.22;;
75413;SDS011;64758;52.122;5.404;2023-04-05T10:31:01;6.50;;;3.90;;
75413;SDS011;64758;52.122;5.404;2023-04-05T10:33:44;5.32;;;3.92;;
75413;SDS011;64758;52.122;5.404;2023-04-05T10:36:28;6.50;;;4.35;;
75413;SDS011;64758;52.122;5.404;2023-04-05T10:42:09;6.07;;;4.03;;
75413;SDS011;64758;52.122;5.404;2023-04-05T10:44:40;5.63;;;4.00;;
75413;SDS011;64758;52.122;5.404;2023-04-05T10:47:12;5.90;;;3.92;;
75413;SDS011;64758;52.122;5.404;2023-04-05T10:49:42;6.85;;;3.97;;
75413;SDS011;64758;52.122;5.404;2023-04-05T10:52:13;5.63;;;4.00;;
75413;SDS011;64758;52.122;5.404;2023-04-05T10:54:42;6.43;;;4.70;;
75413;SDS011;64758;52.122;5.404;2023-04-05T10:57:09;6.57;;;4.17;;
75413;SDS011;64758;52.122;5.404;2023-04-05T10:59:40;5.88;;;4.03;;
75413;SDS011;64758;52.122;5.404;2023-04-05T11:02:09;9.00;;;4.18;;
75413;SDS011;64758;52.122;5.404;2023-04-05T11:04:36;6.43;;;4.60;;
75413;SDS011;64758;52.122;5.404;2023-04-05T11:09:52;9.20;;;4.27;;
75413;SDS011;64758;52.122;5.404;2023-04-05T11:20:52;7.95;;;4.63;;
75413;SDS011;64758;52.122;5.404;2023-04-05T11:23:34;5.23;;;4.30;;
75413;SDS011;64758;52.122;5.404;2023-04-05T11:26:32;6.57;;;4.35;;
75413;SDS011;64758;52.122;5.404;2023-04-05T11:29:44;8.02;;;4.70;;
75413;SDS011;64758;52.122;5.404;2023-04-05T11:32:14;8.02;;;4.43;;
75413;SDS011;64758;52.122;5.404;2023-04-05T11:34:42;8.18;;;4.85;;
75413;SDS011;64758;52.122;5.404;2023-04-05T11:37:09;6.60;;;4.30;;
75413;SDS011;64758;52.122;5.404;2023-04-05T11:39:36;6.47;;;4.55;;
75413;SDS011;64758;52.122;5.404;2023-04-05T11:42:05;6.43;;;4.20;;
75413;SDS011;64758;52.122;5.404;2023-04-05T11:47:08;7.15;;;4.70;;
75413;SDS011;64758;52.122;5.404;2023-04-05T11:49:37;6.87;;;4.50;;
75413;SDS011;64758;52.122;5.404;2023-04-05T11:54:38;7.93;;;4.47;;
75413;SDS011;64758;52.122;5.404;2023-04-05T11:57:18;6.72;;;5.00;;
75413;SDS011;64758;52.122;5.404;2023-04-05T11:59:51;7.05;;;4.93;;
75413;SDS011;64758;52.122;5.404;2023-04-05T12:02:19;6.37;;;4.50;;
75413;SDS011;64758;52.122;5.404;2023-04-05T12:04:55;8.63;;;4.35;;
75413;SDS011;64758;52.122;5.404;2023-04-05T12:07:26;6.45;;;4.45;;
75413;SDS011;64758;52.122;5.404;2023-04-05T12:12:34;5.13;;;4.50;;
75413;SDS011;64758;52.122;5.404;2023-04-05T12:15:01;6.57;;;4.10;;
75413;SDS011;64758;52.122;5.404;2023-04-05T12:17:42;6.47;;;4.50;;
75413;SDS011;64758;52.122;5.404;2023-04-05T12:20:11;5.72;;;4.70;;
75413;SDS011;64758;52.122;5.404;2023-04-05T12:22:40;5.80;;;4.43;;
75413;SDS011;64758;52.122;5.404;2023-04-05T12:25:08;7.55;;;4.43;;
75413;SDS011;64758;52.122;5.404;2023-04-05T12:27:35;7.57;;;4.60;;
75413;SDS011;64758;52.122;5.404;2023-04-05T12:32:41;5.15;;;4.22;;
75413;SDS011;64758;52.122;5.404;2023-04-05T12:35:19;6.32;;;4.57;;
75413;SDS011;64758;52.122;5.404;2023-04-05T12:37:50;7.00;;;4.35;;
75413;SDS011;64758;52.122;5.404;2023-04-05T12:40:20;9.43;;;4.40;;
75413;SDS011;64758;52.122;5.404;2023-04-05T12:42:48;9.07;;;4.90;;
75413;SDS011;64758;52.122;5.404;2023-04-05T12:45:15;10.23;;;4.80;;
75413;SDS011;64758;52.122;5.404;2023-04-05T12:47:47;7.40;;;4.70;;
75413;SDS011;64758;52.122;5.404;2023-04-05T12:52:54;7.20;;;4.40;;
75413;SDS011;64758;52.122;5.404;2023-04-05T12:55:25;7.57;;;4.45;;
75413;SDS011;64758;52.122;5.404;2023-04-05T12:57:54;6.03;;;4.53;;
75413;SDS011;64758;52.122;5.404;2023-04-05T13:00:25;7.82;;;4.50;;
75413;SDS011;64758;52.122;5.404;2023-04-05T13:02:54;6.90;;;4.57;;
75413;SDS011;64758;52.122;5.404;2023-04-05T13:05:22;6.27;;;4.37;;
75413;SDS011;64758;52.122;5.404;2023-04-05T13:07:51;6.70;;;4.55;;
75413;SDS011;64758;52.122;5.404;2023-04-05T13:10:18;6.90;;;4.72;;
75413;SDS011;64758;52.122;5.404;2023-04-05T13:12:46;7.88;;;4.38;;
75413;SDS011;64758;52.122;5.404;2023-04-05T13:15:13;10.23;;;4.78;;
75413;SDS011;64758;52.122;5.404;2023-04-05T13:17:41;6.90;;;4.57;;
75413;SDS011;64758;52.122;5.404;2023-04-05T13:20:08;6.28;;;4.63;;
75413;SDS011;64758;52.122;5.404;2023-04-05T13:22:35;8.45;;;5.00;;
75413;SDS011;64758;52.122;5.404;2023-04-05T13:25:03;6.78;;;4.63;;
75413;SDS011;64758;52.122;5.404;2023-04-05T13:27:30;7.65;;;4.20;;
75413;SDS011;64758;52.122;5.404;2023-04-05T13:29:57;8.43;;;4.83;;
75413;SDS011;64758;52.122;5.404;2023-04-05T13:32:23;6.97;;;4.55;;
75413;SDS011;64758;52.122;5.404;2023-04-05T13:34:50;7.05;;;5.30;;
75413;SDS011;64758;52.122;5.404;2023-04-05T13:37:16;7.47;;;5.10;;
75413;SDS011;64758;52.122;5.404;2023-04-05T13:39:43;7.60;;;5.15;;
75413;SDS011;64758;52.122;5.404;2023-04-05T13:42:09;7.20;;;5.07;;
75413;SDS011;64758;52.122;5.404;2023-04-05T13:44:36;8.10;;;5.07;;
75413;SDS011;64758;52.122;5.404;2023-04-05T13:47:03;5.80;;;4.72;;
75413;SDS011;64758;52.122;5.404;2023-04-05T13:49:30;6.78;;;5.43;;
75413;SDS011;64758;52.122;5.404;2023-04-05T13:51:56;7.30;;;5.47;;
75413;SDS011;64758;52.122;5.404;2023-04-05T13:54:23;7.97;;;4.93;;
75413;SDS011;64758;52.122;5.404;2023-04-05T13:56:49;8.25;;;5.47;;
75413;SDS011;64758;52.122;5.404;2023-04-05T13:59:16;6.68;;;4.95;;
75413;SDS011;64758;52.122;5.404;2023-04-05T14:01:45;8.95;;;4.93;;
75413;SDS011;64758;52.122;5.404;2023-04-05T14:04:12;7.45;;;4.82;;
75413;SDS011;64758;52.122;5.404;2023-04-05T14:06:39;6.90;;;5.07;;
75413;SDS011;64758;52.122;5.404;2023-04-05T14:09:05;7.25;;;4.85;;
75413;SDS011;64758;52.122;5.404;2023-04-05T14:11:32;6.10;;;5.32;;
75413;SDS011;64758;52.122;5.404;2023-04-05T14:13:59;6.30;;;4.55;;
75413;SDS011;64758;52.122;5.404;2023-04-05T14:16:26;9.43;;;5.40;;
75413;SDS011;64758;52.122;5.404;2023-04-05T14:18:53;7.13;;;5.07;;
75413;SDS011;64758;52.122;5.404;2023-04-05T14:21:20;8.82;;;5.30;;
75413;SDS011;64758;52.122;5.404;2023-04-05T14:23:46;6.45;;;5.00;;
75413;SDS011;64758;52.122;5.404;2023-04-05T14:26:15;6.68;;;5.20;;
75413;SDS011;64758;52.122;5.404;2023-04-05T14:28:42;7.22;;;5.18;;
75413;SDS011;64758;52.122;5.404;2023-04-05T14:31:08;8.20;;;5.40;;
75413;SDS011;64758;52.122;5.404;2023-04-05T14:33:35;8.93;;;5.15;;
75413;SDS011;64758;52.122;5.404;2023-04-05T14:36:01;8.48;;;5.70;;
75413;SDS011;64758;52.122;5.404;2023-04-05T14:38:28;5.40;;;4.90;;
75413;SDS011;64758;52.122;5.404;2023-04-05T14:40:55;7.97;;;5.45;;
75413;SDS011;64758;52.122;5.404;2023-04-05T14:43:22;7.30;;;5.97;;
75413;SDS011;64758;52.122;5.404;2023-04-05T14:45:50;6.45;;;5.57;;
75413;SDS011;64758;52.122;5.404;2023-04-05T14:48:17;6.82;;;5.63;;
75413;SDS011;64758;52.122;5.404;2023-04-05T14:50:44;9.32;;;5.93;;
75413;SDS011;64758;52.122;5.404;2023-04-05T14:53:10;8.60;;;6.00;;
75413;SDS011;64758;52.122;5.404;2023-04-05T14:55:37;8.10;;;5.57;;
75413;SDS011;64758;52.122;5.404;2023-04-05T14:58:06;8.05;;;5.80;;
75413;SDS011;64758;52.122;5.404;2023-04-05T15:00:33;6.82;;;5.30;;
75413;SDS011;64758;52.122;5.404;2023-04-05T15:03:00;6.80;;;6.10;;
75413;SDS011;64758;52.122;5.404;2023-04-05T15:05:26;7.47;;;6.28;;
75413;SDS011;64758;52.122;5.404;2023-04-05T15:07:53;8.03;;;6.53;;
75413;SDS011;64758;52.122;5.404;2023-04-05T15:10:19;9.65;;;6.38;;
75413;SDS011;64758;52.122;5.404;2023-04-05T15:12:46;6.68;;;6.07;;
75413;SDS011;64758;52.122;5.404;2023-04-05T15:15:15;7.38;;;6.63;;
75413;SDS011;64758;52.122;5.404;2023-04-05T15:17:42;7.03;;;6.25;;
75413;SDS011;64758;52.122;5.404;2023-04-05T15:20:09;8.67;;;6.00;;
75413;SDS011;64758;52.122;5.404;2023-04-05T15:22:36;8.82;;;6.45;;
75413;SDS011;64758;52.122;5.404;2023-04-05T15:25:06;6.70;;;5.97;;
75413;SDS011;64758;52.122;5.404;2023-04-05T15:27:33;7.50;;;6.15;;
75413;SDS011;64758;52.122;5.404;2023-04-05T15:30:00;7.45;;;6.78;;
75413;SDS011;64758;52.122;5.404;2023-04-05T15:32:27;7.17;;;5.93;;
75413;SDS011;64758;52.122;5.404;2023-04-05T15:34:53;7.55;;;5.88;;
75413;SDS011;64758;52.122;5.404;2023-04-05T15:37:20;6.78;;;6.15;;
75413;SDS011;64758;52.122;5.404;2023-04-05T15:39:46;7.32;;;6.63;;